sensor_id;sensor_type;location;lat;lon;timestamp;pressure;altitude;pressure_sealevel;temperature;humidity
55538;BME280;41383;51.418;7.286;2023-03-15T00:00:54;99329.03;;;5.28;57.15
55538;BME280;41383;51.418;7.286;2023-03-15T00:03:21;99327.97;;;5.29;57.95
55538;BME280;41383;51.418;7.286;2023-03-15T00:05:48;99329.00;;;5.40;58.74
55538;BME280;41383;51.418;7.286;2023-03-15T00:08:16;99344.38;;;5.40;58.98
55538;BME280;41383;51.418;7.286;2023-03-15T00:10:42;99342.44;;;5.35;60.04
55538;BME280;41383;51.418;7.286;2023-03-15T00:13:08;99358.81;;;5.16;60.14
55538;BME280;41383;51.418;7.286;2023-03-15T00:15:35;99362.69;;;5.20;61.50
55538;BME280;41383;51.418;7.286;2023-03-15T00:18:01;99381.94;;;5.24;61.89
55538;BME280;41383;51.418;7.286;2023-03-15T00:20:29;99379.97;;;5.07;63.43
55538;BME280;41383;51.418;7.286;2023-03-15T00:22:55;99368.91;;;5.09;63.50
55538;BME280;41383;51.418;7.286;2023-03-15T00:25:20;99377.94;;;5.27;64.00
55538;BME280;41383;51.418;7.286;2023-03-15T00:27:45;99385.94;;;5.21;64.32
55538;BME280;41383;51.418;7.286;2023-03-15T00:30:10;99385.63;;;5.06;64.80
55538;BME280;41383;51.418;7.286;2023-03-15T00:32:36;99382.66;;;5.07;65.15
55538;BME280;41383;51.418;7.286;2023-03-15T00:35:01;99379.50;;;5.10;65.10
55538;BME280;41383;51.418;7.286;2023-03-15T00:37:26;99394.56;;;5.06;66.00
55538;BME280;41383;51.418;7.286;2023-03-15T00:39:52;99386.09;;;4.90;66.16
55538;BME280;41383;51.418;7.286;2023-03-15T00:42:20;99387.03;;;5.08;66.56
55538;BME280;41383;51.418;7.286;2023-03-15T00:44:45;99398.19;;;5.12;66.25
55538;BME280;41383;51.418;7.286;2023-03-15T00:47:11;99397.63;;;4.98;67.04
55538;BME280;41383;51.418;7.286;2023-03-15T00:49:38;99393.38;;;5.02;67.57
55538;BME280;41383;51.418;7.286;2023-03-15T00:52:04;99399.25;;;4.87;67.99
55538;BME280;41383;51.418;7.286;2023-03-15T00:54:29;99401.97;;;4.63;69.39
55538;BME280;41383;51.418;7.286;2023-03-15T00:57:00;99408.88;;;4.71;69.75
55538;BME280;41383;51.418;7.286;2023-03-15T00:59:30;99409.56;;;4.42;71.29
55538;BME280;41383;51.418;7.286;2023-03-15T01:02:00;99409.56;;;4.42;71.98
55538;BME280;41383;51.418;7.286;2023-03-15T01:04:26;99410.81;;;4.27;73.42
55538;BME280;41383;51.418;7.286;2023-03-15T01:06:51;99412.47;;;4.28;74.17
55538;BME280;41383;51.418;7.286;2023-03-15T01:09:16;99405.34;;;4.46;74.18
55538;BME280;41383;51.418;7.286;2023-03-15T01:11:41;99418.41;;;4.73;73.55
55538;BME280;41383;51.418;7.286;2023-03-15T01:14:08;99419.41;;;4.36;74.20
55538;BME280;41383;51.418;7.286;2023-03-15T01:16:33;99426.50;;;4.49;75.19
55538;BME280;41383;51.418;7.286;2023-03-15T01:18:59;99425.66;;;4.37;75.22
55538;BME280;41383;51.418;7.286;2023-03-15T01:21:24;99431.16;;;4.42;76.43
55538;BME280;41383;51.418;7.286;2023-03-15T01:23:49;99436.94;;;4.58;76.16
55538;BME280;41383;51.418;7.286;2023-03-15T01:26:15;99433.66;;;4.01;77.67
55538;BME280;41383;51.418;7.286;2023-03-15T01:28:42;99431.59;;;4.15;78.42
55538;BME280;41383;51.418;7.286;2023-03-15T01:31:27;99438.91;;;4.50;77.85
55538;BME280;41383;51.418;7.286;2023-03-15T01:33:54;99430.56;;;4.40;77.22
55538;BME280;41383;51.418;7.286;2023-03-15T01:36:19;99436.63;;;4.23;77.77
55538;BME280;41383;51.418;7.286;2023-03-15T01:38:45;99440.38;;;4.22;78.58
55538;BME280;41383;51.418;7.286;2023-03-15T01:41:12;99444.53;;;3.94;79.09
55538;BME280;41383;51.418;7.286;2023-03-15T01:43:38;99434.38;;;4.08;79.66
55538;BME280;41383;51.418;7.286;2023-03-15T01:46:05;99444.69;;;4.11;78.49
55538;BME280;41383;51.418;7.286;2023-03-15T01:48:44;99443.88;;;4.11;78.90
55538;BME280;41383;51.418;7.286;2023-03-15T01:53:42;99446.28;;;4.31;77.45
55538;BME280;41383;51.418;7.286;2023-03-15T01:56:09;99445.94;;;3.96;78.85
55538;BME280;41383;51.418;7.286;2023-03-15T01:58:35;99452.19;;;3.78;79.54
55538;BME280;41383;51.418;7.286;2023-03-15T02:01:02;99449.03;;;4.12;79.75
55538;BME280;41383;51.418;7.286;2023-03-15T02:03:32;99443.22;;;4.27;78.80
55538;BME280;41383;51.418;7.286;2023-03-15T02:06:04;99442.78;;;4.42;78.15
55538;BME280;41383;51.418;7.286;2023-03-15T02:08:34;99446.66;;;4.35;77.96
55538;BME280;41383;51.418;7.286;2023-03-15T02:11:03;99444.53;;;4.37;78.13
55538;BME280;41383;51.418;7.286;2023-03-15T02:13:29;99448.72;;;4.20;77.99
55538;BME280;41383;51.418;7.286;2023-03-15T02:15:56;99451.56;;;4.38;78.52
55538;BME280;41383;51.418;7.286;2023-03-15T02:18:22;99449.72;;;4.50;77.70
55538;BME280;41383;51.418;7.286;2023-03-15T02:23:29;99454.56;;;4.17;78.66
55538;BME280;41383;51.418;7.286;2023-03-15T02:26:11;99456.00;;;4.20;78.51
55538;BME280;41383;51.418;7.286;2023-03-15T02:28:41;99460.59;;;4.31;79.46
55538;BME280;41383;51.418;7.286;2023-03-15T02:31:06;99465.63;;;4.28;78.36
55538;BME280;41383;51.418;7.286;2023-03-15T02:33:37;99464.88;;;4.51;78.58
55538;BME280;41383;51.418;7.286;2023-03-15T02:36:19;99460.41;;;4.45;77.77
55538;BME280;41383;51.418;7.286;2023-03-15T02:38:44;99466.00;;;4.43;78.56
55538;BME280;41383;51.418;7.286;2023-03-15T02:41:11;99468.91;;;4.30;78.62
55538;BME280;41383;51.418;7.286;2023-03-15T02:43:39;99467.16;;;4.36;78.60
55538;BME280;41383;51.418;7.286;2023-03-15T02:46:06;99468.94;;;4.42;78.18
55538;BME280;41383;51.418;7.286;2023-03-15T02:48:33;99478.22;;;4.34;78.58
55538;BME280;41383;51.418;7.286;2023-03-15T02:50:59;99476.50;;;4.21;78.29
55538;BME280;41383;51.418;7.286;2023-03-15T02:53:30;99473.41;;;4.05;80.00
55538;BME280;41383;51.418;7.286;2023-03-15T02:55:56;99479.16;;;4.40;80.15
55538;BME280;41383;51.418;7.286;2023-03-15T02:58:21;99489.38;;;4.50;79.13
55538;BME280;41383;51.418;7.286;2023-03-15T03:00:47;99482.88;;;4.27;78.43
55538;BME280;41383;51.418;7.286;2023-03-15T03:03:12;99496.38;;;4.27;79.38
55538;BME280;41383;51.418;7.286;2023-03-15T03:05:37;99492.69;;;4.21;80.13
55538;BME280;41383;51.418;7.286;2023-03-15T03:08:03;99500.63;;;4.35;79.14
55538;BME280;41383;51.418;7.286;2023-03-15T03:10:28;99506.66;;;4.18;80.09
55538;BME280;41383;51.418;7.286;2023-03-15T03:12:54;99495.28;;;4.16;80.14
55538;BME280;41383;51.418;7.286;2023-03-15T03:15:20;99485.34;;;4.28;79.57
55538;BME280;41383;51.418;7.286;2023-03-15T03:17:45;99489.03;;;4.46;79.08
55538;BME280;41383;51.418;7.286;2023-03-15T03:20:11;99503.38;;;4.59;78.87
55538;BME280;41383;51.418;7.286;2023-03-15T03:22:39;99506.06;;;4.47;78.33
55538;BME280;41383;51.418;7.286;2023-03-15T03:25:06;99504.66;;;4.56;79.10
55538;BME280;41383;51.418;7.286;2023-03-15T03:27:32;99507.16;;;4.58;78.83
55538;BME280;41383;51.418;7.286;2023-03-15T03:30:06;99511.16;;;4.67;78.28
55538;BME280;41383;51.418;7.286;2023-03-15T03:32:32;99519.13;;;4.62;77.30
55538;BME280;41383;51.418;7.286;2023-03-15T03:34:57;99520.88;;;4.56;78.55
55538;BME280;41383;51.418;7.286;2023-03-15T03:37:22;99530.03;;;4.55;78.47
55538;BME280;41383;51.418;7.286;2023-03-15T03:39:48;99537.91;;;4.26;78.50
55538;BME280;41383;51.418;7.286;2023-03-15T03:42:13;99548.28;;;4.10;79.83
55538;BME280;41383;51.418;7.286;2023-03-15T03:44:39;99549.78;;;3.87;81.23
55538;BME280;41383;51.418;7.286;2023-03-15T03:47:05;99544.91;;;4.15;80.05
55538;BME280;41383;51.418;7.286;2023-03-15T03:49:30;99551.81;;;4.11;79.27
55538;BME280;41383;51.418;7.286;2023-03-15T03:51:55;99552.25;;;4.07;80.25
55538;BME280;41383;51.418;7.286;2023-03-15T03:54:21;99563.22;;;3.94;80.52
55538;BME280;41383;51.418;7.286;2023-03-15T03:56:47;99558.84;;;4.12;81.55
55538;BME280;41383;51.418;7.286;2023-03-15T03:59:13;99568.81;;;4.11;79.77
55538;BME280;41383;51.418;7.286;2023-03-15T04:01:39;99568.44;;;4.26;79.78
55538;BME280;41383;51.418;7.286;2023-03-15T04:04:06;99571.91;;;4.15;80.27
55538;BME280;41383;51.418;7.286;2023-03-15T04:06:31;99582.16;;;4.25;79.15
55538;BME280;41383;51.418;7.286;2023-03-15T04:08:56;99582.56;;;4.40;80.20
55538;BME280;41383;51.418;7.286;2023-03-15T04:11:22;99582.78;;;4.58;79.40
55538;BME280;41383;51.418;7.286;2023-03-15T04:13:51;99579.41;;;4.74;78.49
55538;BME280;41383;51.418;7.286;2023-03-15T04:16:18;99579.63;;;4.73;77.82
55538;BME280;41383;51.418;7.286;2023-03-15T04:18:43;99584.69;;;4.69;78.06
55538;BME280;41383;51.418;7.286;2023-03-15T04:21:08;99599.22;;;4.68;78.01
55538;BME280;41383;51.418;7.286;2023-03-15T04:23:35;99595.13;;;4.65;78.60
55538;BME280;41383;51.418;7.286;2023-03-15T04:26:01;99591.88;;;4.75;78.32
55538;BME280;41383;51.418;7.286;2023-03-15T04:28:27;99600.53;;;4.65;78.00
55538;BME280;41383;51.418;7.286;2023-03-15T04:30:54;99610.13;;;4.30;79.07
55538;BME280;41383;51.418;7.286;2023-03-15T04:33:26;99610.41;;;4.41;79.03
55538;BME280;41383;51.418;7.286;2023-03-15T04:35:51;99613.59;;;4.50;78.31
55538;BME280;41383;51.418;7.286;2023-03-15T04:38:17;99614.09;;;4.59;77.74
55538;BME280;41383;51.418;7.286;2023-03-15T04:40:42;99615.81;;;4.41;78.00
55538;BME280;41383;51.418;7.286;2023-03-15T04:43:07;99620.66;;;4.51;78.24
55538;BME280;41383;51.418;7.286;2023-03-15T04:45:33;99627.84;;;4.57;77.45
55538;BME280;41383;51.418;7.286;2023-03-15T04:47:59;99623.66;;;4.42;78.00
55538;BME280;41383;51.418;7.286;2023-03-15T04:50:25;99622.69;;;4.55;77.93
55538;BME280;41383;51.418;7.286;2023-03-15T04:52:50;99617.72;;;4.52;77.70
55538;BME280;41383;51.418;7.286;2023-03-15T04:55:16;99623.75;;;4.36;76.68
55538;BME280;41383;51.418;7.286;2023-03-15T04:57:41;99622.03;;;4.23;79.43
55538;BME280;41383;51.418;7.286;2023-03-15T05:00:08;99625.53;;;4.42;78.93
55538;BME280;41383;51.418;7.286;2023-03-15T05:02:35;99628.94;;;4.18;78.92
55538;BME280;41383;51.418;7.286;2023-03-15T05:05:04;99634.78;;;4.34;78.51
55538;BME280;41383;51.418;7.286;2023-03-15T05:07:31;99634.41;;;4.30;78.91
55538;BME280;41383;51.418;7.286;2023-03-15T05:09:57;99643.81;;;4.59;78.79
55538;BME280;41383;51.418;7.286;2023-03-15T05:12:22;99632.81;;;4.72;77.38
55538;BME280;41383;51.418;7.286;2023-03-15T05:14:48;99631.91;;;4.78;77.49
55538;BME280;41383;51.418;7.286;2023-03-15T05:17:13;99625.22;;;4.81;77.50
55538;BME280;41383;51.418;7.286;2023-03-15T05:19:39;99628.81;;;4.63;77.84
55538;BME280;41383;51.418;7.286;2023-03-15T05:22:06;99643.63;;;4.72;78.27
55538;BME280;41383;51.418;7.286;2023-03-15T05:24:32;99640.16;;;4.84;77.05
55538;BME280;41383;51.418;7.286;2023-03-15T05:26:57;99647.41;;;4.71;76.80
55538;BME280;41383;51.418;7.286;2023-03-15T05:29:22;99646.03;;;4.62;77.45
55538;BME280;41383;51.418;7.286;2023-03-15T05:31:48;99659.09;;;4.65;77.75
55538;BME280;41383;51.418;7.286;2023-03-15T05:34:14;99666.91;;;4.73;77.56
55538;BME280;41383;51.418;7.286;2023-03-15T05:36:39;99663.19;;;4.55;77.80
55538;BME280;41383;51.418;7.286;2023-03-15T05:39:06;99671.53;;;4.66;78.15
55538;BME280;41383;51.418;7.286;2023-03-15T05:41:31;99674.63;;;4.70;77.91
55538;BME280;41383;51.418;7.286;2023-03-15T05:43:57;99686.19;;;4.58;77.29
55538;BME280;41383;51.418;7.286;2023-03-15T05:46:23;99696.50;;;4.30;77.88
55538;BME280;41383;51.418;7.286;2023-03-15T05:48:48;99699.50;;;4.41;79.07
55538;BME280;41383;51.418;7.286;2023-03-15T05:51:14;99710.13;;;4.36;78.67
55538;BME280;41383;51.418;7.286;2023-03-15T05:53:39;99710.06;;;4.42;78.40
55538;BME280;41383;51.418;7.286;2023-03-15T05:56:05;99714.50;;;4.55;78.19
55538;BME280;41383;51.418;7.286;2023-03-15T05:58:30;99722.47;;;4.06;77.89
55538;BME280;41383;51.418;7.286;2023-03-15T06:00:55;99730.69;;;3.92;79.88
55538;BME280;41383;51.418;7.286;2023-03-15T06:03:21;99738.72;;;3.99;79.52
55538;BME280;41383;51.418;7.286;2023-03-15T06:05:46;99738.28;;;4.02;79.86
55538;BME280;41383;51.418;7.286;2023-03-15T06:08:11;99737.25;;;4.22;79.58
55538;BME280;41383;51.418;7.286;2023-03-15T06:10:36;99732.69;;;4.23;79.21
55538;BME280;41383;51.418;7.286;2023-03-15T06:13:02;99751.31;;;4.31;78.64
55538;BME280;41383;51.418;7.286;2023-03-15T06:15:27;99758.13;;;4.52;78.41
55538;BME280;41383;51.418;7.286;2023-03-15T06:17:52;99751.09;;;4.51;78.60
55538;BME280;41383;51.418;7.286;2023-03-15T06:20:18;99757.81;;;4.42;78.19
55538;BME280;41383;51.418;7.286;2023-03-15T06:22:43;99754.81;;;4.50;78.45
55538;BME280;41383;51.418;7.286;2023-03-15T06:25:09;99761.72;;;4.46;78.39
55538;BME280;41383;51.418;7.286;2023-03-15T06:27:35;99757.09;;;4.53;78.67
55538;BME280;41383;51.418;7.286;2023-03-15T06:30:01;99764.97;;;4.55;78.08
55538;BME280;41383;51.418;7.286;2023-03-15T06:32:26;99758.56;;;4.68;77.71
55538;BME280;41383;51.418;7.286;2023-03-15T06:34:51;99770.13;;;4.57;77.52
55538;BME280;41383;51.418;7.286;2023-03-15T06:37:16;99767.88;;;4.72;77.88
55538;BME280;41383;51.418;7.286;2023-03-15T06:39:43;99776.81;;;4.09;78.93
55538;BME280;41383;51.418;7.286;2023-03-15T06:42:09;99772.31;;;4.03;79.68
55538;BME280;41383;51.418;7.286;2023-03-15T06:44:37;99773.97;;;4.04;80.05
55538;BME280;41383;51.418;7.286;2023-03-15T06:47:03;99782.88;;;4.30;80.81
55538;BME280;41383;51.418;7.286;2023-03-15T06:49:28;99786.41;;;4.50;79.75
55538;BME280;41383;51.418;7.286;2023-03-15T06:51:54;99789.19;;;4.62;78.92
55538;BME280;41383;51.418;7.286;2023-03-15T06:54:20;99799.31;;;4.66;78.68
55538;BME280;41383;51.418;7.286;2023-03-15T06:56:45;99789.59;;;4.65;78.33
55538;BME280;41383;51.418;7.286;2023-03-15T06:59:10;99796.09;;;4.58;78.31
55538;BME280;41383;51.418;7.286;2023-03-15T07:01:35;99797.97;;;4.57;78.88
55538;BME280;41383;51.418;7.286;2023-03-15T07:04:01;99804.50;;;4.68;78.53
55538;BME280;41383;51.418;7.286;2023-03-15T07:06:26;99808.38;;;4.72;78.58
55538;BME280;41383;51.418;7.286;2023-03-15T07:08:52;99811.41;;;4.83;78.66
55538;BME280;41383;51.418;7.286;2023-03-15T07:11:17;99809.16;;;4.79;77.58
55538;BME280;41383;51.418;7.286;2023-03-15T07:13:43;99815.59;;;4.78;78.16
55538;BME280;41383;51.418;7.286;2023-03-15T07:16:08;99819.75;;;4.81;78.37
55538;BME280;41383;51.418;7.286;2023-03-15T07:18:33;99816.19;;;4.99;77.97
55538;BME280;41383;51.418;7.286;2023-03-15T07:21:00;99822.28;;;4.95;77.04
55538;BME280;41383;51.418;7.286;2023-03-15T07:23:27;99824.19;;;4.94;77.91
55538;BME280;41383;51.418;7.286;2023-03-15T07:25:53;99842.69;;;4.90;77.67
55538;BME280;41383;51.418;7.286;2023-03-15T07:28:19;99844.88;;;5.00;77.69
55538;BME280;41383;51.418;7.286;2023-03-15T07:30:52;99846.13;;;5.17;77.07
55538;BME280;41383;51.418;7.286;2023-03-15T07:33:17;99849.22;;;5.01;76.48
55538;BME280;41383;51.418;7.286;2023-03-15T07:35:46;99851.03;;;5.08;78.18
55538;BME280;41383;51.418;7.286;2023-03-15T07:38:11;99849.53;;;5.12;78.02
55538;BME280;41383;51.418;7.286;2023-03-15T07:40:36;99859.38;;;5.06;77.65
55538;BME280;41383;51.418;7.286;2023-03-15T07:43:02;99861.31;;;4.99;77.77
55538;BME280;41383;51.418;7.286;2023-03-15T07:45:27;99860.56;;;5.10;77.20
55538;BME280;41383;51.418;7.286;2023-03-15T07:47:52;99868.16;;;5.20;76.98
55538;BME280;41383;51.418;7.286;2023-03-15T07:50:18;99872.66;;;5.08;77.04
55538;BME280;41383;51.418;7.286;2023-03-15T07:52:43;99875.66;;;4.99;77.39
55538;BME280;41383;51.418;7.286;2023-03-15T07:55:08;99890.38;;;5.04;77.63
55538;BME280;41383;51.418;7.286;2023-03-15T07:57:34;99903.81;;;5.10;77.75
55538;BME280;41383;51.418;7.286;2023-03-15T07:59:59;99897.44;;;5.23;76.77
55538;BME280;41383;51.418;7.286;2023-03-15T08:02:24;99900.72;;;5.25;76.54
55538;BME280;41383;51.418;7.286;2023-03-15T08:04:49;99910.72;;;5.25;76.52
55538;BME280;41383;51.418;7.286;2023-03-15T08:07:15;99914.16;;;5.51;76.22
55538;BME280;41383;51.418;7.286;2023-03-15T08:09:40;99915.72;;;5.59;75.66
55538;BME280;41383;51.418;7.286;2023-03-15T08:12:06;99918.94;;;5.68;75.07
55538;BME280;41383;51.418;7.286;2023-03-15T08:14:31;99927.28;;;5.66;75.21
55538;BME280;41383;51.418;7.286;2023-03-15T08:16:57;99932.84;;;5.71;75.27
55538;BME280;41383;51.418;7.286;2023-03-15T08:19:22;99930.59;;;5.68;75.20
55538;BME280;41383;51.418;7.286;2023-03-15T08:21:48;99941.66;;;5.98;75.01
55538;BME280;41383;51.418;7.286;2023-03-15T08:24:13;99945.97;;;5.87;74.64
55538;BME280;41383;51.418;7.286;2023-03-15T08:26:39;99948.00;;;5.72;74.81
55538;BME280;41383;51.418;7.286;2023-03-15T08:29:07;99951.88;;;5.65;75.48
55538;BME280;41383;51.418;7.286;2023-03-15T08:31:32;99956.25;;;5.78;74.94
55538;BME280;41383;51.418;7.286;2023-03-15T08:33:57;99956.97;;;5.54;75.33
55538;BME280;41383;51.418;7.286;2023-03-15T08:36:23;99956.75;;;5.37;75.17
55538;BME280;41383;51.418;7.286;2023-03-15T08:38:48;99960.81;;;5.46;75.28
55538;BME280;41383;51.418;7.286;2023-03-15T08:41:13;99961.69;;;5.78;74.29
55538;BME280;41383;51.418;7.286;2023-03-15T08:43:38;99972.16;;;6.05;72.17
55538;BME280;41383;51.418;7.286;2023-03-15T08:46:04;99983.72;;;5.81;71.57
55538;BME280;41383;51.418;7.286;2023-03-15T08:48:29;99983.25;;;5.84;72.31
55538;BME280;41383;51.418;7.286;2023-03-15T08:51:00;99984.09;;;5.66;72.92
55538;BME280;41383;51.418;7.286;2023-03-15T08:53:26;99983.59;;;5.88;72.81
55538;BME280;41383;51.418;7.286;2023-03-15T08:55:51;99989.97;;;6.13;72.80
55538;BME280;41383;51.418;7.286;2023-03-15T08:58:17;99992.63;;;6.01;71.49
55538;BME280;41383;51.418;7.286;2023-03-15T09:00:42;99993.41;;;5.89;71.09
55538;BME280;41383;51.418;7.286;2023-03-15T09:03:07;99991.56;;;6.02;71.59
55538;BME280;41383;51.418;7.286;2023-03-15T09:05:32;99997.06;;;6.14;71.04
55538;BME280;41383;51.418;7.286;2023-03-15T09:07:58;99992.00;;;6.17;69.48
55538;BME280;41383;51.418;7.286;2023-03-15T09:10:24;99995.91;;;6.22;69.71
55538;BME280;41383;51.418;7.286;2023-03-15T09:12:51;99991.53;;;6.21;69.03
55538;BME280;41383;51.418;7.286;2023-03-15T09:15:17;99991.47;;;6.27;69.74
55538;BME280;41383;51.418;7.286;2023-03-15T09:17:43;99992.22;;;6.47;69.96
55538;BME280;41383;51.418;7.286;2023-03-15T09:20:11;99989.03;;;6.38;69.23
55538;BME280;41383;51.418;7.286;2023-03-15T09:22:39;100000.84;;;6.25;68.65
55538;BME280;41383;51.418;7.286;2023-03-15T09:25:05;99997.97;;;6.38;67.90
55538;BME280;41383;51.418;7.286;2023-03-15T09:27:31;100013.41;;;6.38;67.70
55538;BME280;41383;51.418;7.286;2023-03-15T09:29:56;100007.16;;;6.37;68.17
55538;BME280;41383;51.418;7.286;2023-03-15T09:32:21;100017.53;;;6.40;67.04
55538;BME280;41383;51.418;7.286;2023-03-15T09:34:47;100016.66;;;6.28;66.01
55538;BME280;41383;51.418;7.286;2023-03-15T09:37:13;100017.88;;;6.44;65.97
55538;BME280;41383;51.418;7.286;2023-03-15T09:39:39;100020.22;;;6.83;65.16
55538;BME280;41383;51.418;7.286;2023-03-15T09:42:14;100020.25;;;6.95;64.99
55538;BME280;41383;51.418;7.286;2023-03-15T09:44:46;100026.94;;;7.05;65.29
55538;BME280;41383;51.418;7.286;2023-03-15T09:49:56;100038.38;;;6.95;65.58
55538;BME280;41383;51.418;7.286;2023-03-15T09:52:32;100041.00;;;7.14;64.87
55538;BME280;41383;51.418;7.286;2023-03-15T09:55:00;100052.75;;;6.83;63.50
55538;BME280;41383;51.418;7.286;2023-03-15T09:57:40;100043.28;;;6.74;63.63
55538;BME280;41383;51.418;7.286;2023-03-15T10:00:12;100038.50;;;7.00;63.45
55538;BME280;41383;51.418;7.286;2023-03-15T10:02:43;100040.84;;;7.08;63.34
55538;BME280;41383;51.418;7.286;2023-03-15T10:05:17;100041.25;;;7.24;62.79
55538;BME280;41383;51.418;7.286;2023-03-15T10:07:44;100038.38;;;7.31;62.63
55538;BME280;41383;51.418;7.286;2023-03-15T10:10:16;100043.38;;;7.22;60.92
55538;BME280;41383;51.418;7.286;2023-03-15T10:12:45;100044.66;;;7.19;61.82
55538;BME280;41383;51.418;7.286;2023-03-15T10:15:29;100034.16;;;6.99;62.09
55538;BME280;41383;51.418;7.286;2023-03-15T10:20:30;100037.88;;;6.86;62.59
55538;BME280;41383;51.418;7.286;2023-03-15T10:23:13;100036.47;;;6.83;62.97
55538;BME280;41383;51.418;7.286;2023-03-15T10:25:42;100040.75;;;7.03;62.56
55538;BME280;41383;51.418;7.286;2023-03-15T10:28:12;100035.22;;;7.22;61.45
55538;BME280;41383;51.418;7.286;2023-03-15T10:30:41;100033.19;;;7.53;60.65
55538;BME280;41383;51.418;7.286;2023-03-15T10:33:29;100035.63;;;7.67;59.83
55538;BME280;41383;51.418;7.286;2023-03-15T10:35:59;100038.34;;;7.67;59.58
55538;BME280;41383;51.418;7.286;2023-03-15T10:38:26;100046.69;;;7.89;59.06
55538;BME280;41383;51.418;7.286;2023-03-15T10:40:56;100039.84;;;7.99;60.15
55538;BME280;41383;51.418;7.286;2023-03-15T10:45:58;100042.75;;;8.09;58.79
55538;BME280;41383;51.418;7.286;2023-03-15T10:48:25;100042.50;;;8.11;59.59
55538;BME280;41383;51.418;7.286;2023-03-15T10:50:51;100046.34;;;7.86;59.21
55538;BME280;41383;51.418;7.286;2023-03-15T10:53:18;100045.09;;;8.05;58.83
55538;BME280;41383;51.418;7.286;2023-03-15T10:55:47;100046.97;;;8.17;58.09
55538;BME280;41383;51.418;7.286;2023-03-15T10:58:38;100047.19;;;8.27;56.70
55538;BME280;41383;51.418;7.286;2023-03-15T11:01:05;100052.75;;;8.21;57.17
55538;BME280;41383;51.418;7.286;2023-03-15T11:03:32;100058.09;;;8.03;56.75
55538;BME280;41383;51.418;7.286;2023-03-15T11:05:58;100043.25;;;7.94;57.03
55538;BME280;41383;51.418;7.286;2023-03-15T11:08:36;100048.00;;;7.87;57.65
55538;BME280;41383;51.418;7.286;2023-03-15T11:11:02;100052.25;;;7.94;57.00
55538;BME280;41383;51.418;7.286;2023-03-15T11:13:30;100050.28;;;8.19;56.41
55538;BME280;41383;51.418;7.286;2023-03-15T11:18:59;100045.63;;;8.61;53.81
55538;BME280;41383;51.418;7.286;2023-03-15T11:21:30;100051.56;;;8.75;53.97
55538;BME280;41383;51.418;7.286;2023-03-15T11:23:59;100051.72;;;8.39;54.30
55538;BME280;41383;51.418;7.286;2023-03-15T11:26:26;100058.75;;;8.64;54.05
55538;BME280;41383;51.418;7.286;2023-03-15T11:28:55;100064.06;;;8.59;51.94
55538;BME280;41383;51.418;7.286;2023-03-15T11:31:26;100069.88;;;8.50;52.24
55538;BME280;41383;51.418;7.286;2023-03-15T11:34:04;100062.22;;;8.47;52.55
55538;BME280;41383;51.418;7.286;2023-03-15T11:36:32;100073.06;;;8.47;52.33
55538;BME280;41383;51.418;7.286;2023-03-15T11:39:01;100079.19;;;8.55;51.24
55538;BME280;41383;51.418;7.286;2023-03-15T11:41:35;100084.91;;;8.41;50.41
55538;BME280;41383;51.418;7.286;2023-03-15T11:46:45;100086.97;;;8.63;50.55
55538;BME280;41383;51.418;7.286;2023-03-15T11:49:22;100085.66;;;8.66;50.20
55538;BME280;41383;51.418;7.286;2023-03-15T11:51:54;100091.81;;;8.32;51.50
55538;BME280;41383;51.418;7.286;2023-03-15T11:54:20;100096.78;;;8.23;52.24
55538;BME280;41383;51.418;7.286;2023-03-15T11:56:50;100088.94;;;8.09;52.30
55538;BME280;41383;51.418;7.286;2023-03-15T11:59:19;100094.56;;;8.08;52.54
55538;BME280;41383;51.418;7.286;2023-03-15T12:01:50;100090.69;;;8.03;53.07
55538;BME280;41383;51.418;7.286;2023-03-15T12:04:35;100094.72;;;8.01;53.78
55538;BME280;41383;51.418;7.286;2023-03-15T12:09:46;100090.72;;;7.79;54.67
55538;BME280;41383;51.418;7.286;2023-03-15T12:17:53;100094.03;;;8.35;54.08
55538;BME280;41383;51.418;7.286;2023-03-15T12:20:38;100077.91;;;8.57;53.44
55538;BME280;41383;51.418;7.286;2023-03-15T12:25:55;100084.06;;;9.16;51.89
55538;BME280;41383;51.418;7.286;2023-03-15T12:28:33;100074.81;;;9.34;51.56
55538;BME280;41383;51.418;7.286;2023-03-15T12:31:00;100077.59;;;9.40;50.15
55538;BME280;41383;51.418;7.286;2023-03-15T12:33:28;100080.53;;;9.33;50.59
55538;BME280;41383;51.418;7.286;2023-03-15T12:36:00;100073.16;;;9.51;50.33
55538;BME280;41383;51.418;7.286;2023-03-15T12:38:34;100066.19;;;9.60;51.15
55538;BME280;41383;51.418;7.286;2023-03-15T12:41:06;100071.63;;;9.60;50.60
55538;BME280;41383;51.418;7.286;2023-03-15T12:43:45;100078.94;;;9.20;50.32
55538;BME280;41383;51.418;7.286;2023-03-15T12:51:42;100073.31;;;8.75;50.98
55538;BME280;41383;51.418;7.286;2023-03-15T12:54:10;100066.59;;;9.12;49.67
55538;BME280;41383;51.418;7.286;2023-03-15T12:56:41;100064.44;;;9.31;48.15
55538;BME280;41383;51.418;7.286;2023-03-15T12:59:27;100067.56;;;9.06;46.68
55538;BME280;41383;51.418;7.286;2023-03-15T13:01:55;100071.69;;;8.74;46.12
55538;BME280;41383;51.418;7.286;2023-03-15T13:04:20;100068.06;;;9.20;46.68
55538;BME280;41383;51.418;7.286;2023-03-15T13:09:51;100060.91;;;9.71;44.66
55538;BME280;41383;51.418;7.286;2023-03-15T13:12:28;100073.81;;;10.03;44.18
55538;BME280;41383;51.418;7.286;2023-03-15T13:15:07;100070.59;;;10.28;44.92
55538;BME280;41383;51.418;7.286;2023-03-15T13:17:49;100074.88;;;10.47;44.85
55538;BME280;41383;51.418;7.286;2023-03-15T13:25:28;100078.47;;;10.75;44.02
55538;BME280;41383;51.418;7.286;2023-03-15T13:28:06;100075.91;;;10.63;43.86
55538;BME280;41383;51.418;7.286;2023-03-15T13:30:36;100070.09;;;10.09;44.73
55538;BME280;41383;51.418;7.286;2023-03-15T13:35:33;100071.75;;;10.10;44.72
55538;BME280;41383;51.418;7.286;2023-03-15T13:38:11;100073.19;;;10.18;42.69
55538;BME280;41383;51.418;7.286;2023-03-15T13:40:45;100072.78;;;10.54;44.40
55538;BME280;41383;51.418;7.286;2023-03-15T13:43:11;100079.03;;;10.77;42.87
55538;BME280;41383;51.418;7.286;2023-03-15T13:45:41;100066.94;;;10.68;41.12
55538;BME280;41383;51.418;7.286;2023-03-15T13:48:07;100077.91;;;10.73;42.80
55538;BME280;41383;51.418;7.286;2023-03-15T13:50:32;100077.31;;;10.71;39.84
55538;BME280;41383;51.418;7.286;2023-03-15T13:52:58;100074.81;;;10.42;40.87
55538;BME280;41383;51.418;7.286;2023-03-15T13:55:28;100072.50;;;10.50;42.14